Time;durP1;ratioP1;P1;durP2;ratioP2;P2;SDS_P1;SDS_P2;PMS_P1;PMS_P2;Temp;Humidity;BMP_temperature;BMP_pressure;BME280_temperature;BME280_humidity;BME280_pressure;Samples;Min_cycle;Max_cycle;Signal;HPM_P1;HPM_P2
2023/04/08 00:00:10;;;;;;;9.27;6.70;;;6.40;99.90;;;;;;477719;249;28172;-75
2023/04/08 00:02:11;;;;;;;9.57;6.53;;;6.30;99.90;;;;;;477694;249;28064;-75
2023/04/08 00:04:13;;;;;;;7.10;5.80;;;6.20;99.90;;;;;;477656;249;27466;-75
2023/04/08 00:06:13;;;;;;;7.72;5.72;;;6.20;99.90;;;;;;477648;249;28734;-75
2023/04/08 00:08:15;;;;;;;8.35;6.25;;;6.20;99.90;;;;;;477701;249;27941;-75
2023/04/08 00:10:16;;;;;;;11.83;6.10;;;6.20;99.90;;;;;;477718;249;27938;-75
2023/04/08 00:12:17;;;;;;;7.17;5.83;;;6.20;99.90;;;;;;477709;249;28743;-75
2023/04/08 00:14:18;;;;;;;9.03;6.40;;;6.10;99.90;;;;;;477612;249;28796;-75
2023/04/08 00:16:20;;;;;;;9.85;5.97;;;6.10;99.90;;;;;;477608;249;28855;-75
2023/04/08 00:18:21;;;;;;;8.43;6.50;;;6.10;99.90;;;;;;477649;249;27390;-75
2023/04/08 00:20:22;;;;;;;9.82;7.22;;;6.10;99.90;;;;;;477697;249;27896;-75
2023/04/08 00:22:24;;;;;;;9.17;7.10;;;6.10;99.90;;;;;;477679;249;27853;-75
2023/04/08 00:24:25;;;;;;;13.60;8.95;;;6.10;99.90;;;;;;477545;249;28833;-74
2023/04/08 00:26:26;;;;;;;21.83;12.75;;;6.10;99.90;;;;;;477670;249;27502;-75
2023/04/08 00:28:27;;;;;;;14.35;9.43;;;6.20;99.90;;;;;;477703;249;27389;-74
2023/04/08 00:30:28;;;;;;;17.87;10.50;;;6.20;99.90;;;;;;477692;249;27468;-74
2023/04/08 00:32:30;;;;;;;16.35;10.80;;;6.30;99.90;;;;;;477673;249;27620;-75
2023/04/08 00:34:31;;;;;;;19.27;11.43;;;6.30;99.90;;;;;;477572;249;27929;-74
2023/04/08 00:36:32;;;;;;;13.85;9.60;;;6.30;99.90;;;;;;477688;249;28142;-75
2023/04/08 00:38:34;;;;;;;18.75;10.18;;;6.30;99.90;;;;;;477657;249;27478;-75
2023/04/08 00:40:35;;;;;;;15.55;10.48;;;6.40;99.90;;;;;;477653;249;27460;-75
2023/04/08 00:42:36;;;;;;;17.73;10.40;;;6.30;99.90;;;;;;477658;249;27398;-75
2023/04/08 00:44:37;;;;;;;18.03;11.03;;;6.40;99.90;;;;;;477585;249;27904;-74
2023/04/08 00:46:39;;;;;;;15.53;10.43;;;6.40;99.90;;;;;;477703;249;28499;-75
2023/04/08 00:48:40;;;;;;;16.80;10.67;;;6.40;99.90;;;;;;477677;249;28239;-72
2023/04/08 00:50:41;;;;;;;20.57;11.70;;;6.40;99.90;;;;;;477667;249;28651;-75
2023/04/08 00:52:42;;;;;;;19.07;11.50;;;6.40;99.90;;;;;;477616;249;28822;-75
2023/04/08 00:54:44;;;;;;;24.43;13.50;;;6.40;99.90;;;;;;477588;249;27947;-75
2023/04/08 00:56:45;;;;;;;25.35;13.45;;;6.40;99.90;;;;;;477681;249;28794;-75
2023/04/08 00:58:46;;;;;;;18.43;12.03;;;6.40;99.90;;;;;;477686;249;27406;-75
2023/04/08 01:00:47;;;;;;;17.97;11.70;;;6.40;99.90;;;;;;477665;249;28862;-76
2023/04/08 01:02:49;;;;;;;20.77;12.70;;;6.40;99.90;;;;;;477651;249;29060;-75
2023/04/08 01:04:50;;;;;;;22.63;13.93;;;6.40;99.90;;;;;;477649;249;29169;-74
2023/04/08 01:06:51;;;;;;;25.60;13.38;;;6.40;99.90;;;;;;477650;249;28560;-74
2023/04/08 01:08:52;;;;;;;23.63;13.13;;;6.40;99.90;;;;;;477646;249;27466;-75
2023/04/08 01:10:54;;;;;;;18.53;12.10;;;6.40;99.90;;;;;;477678;249;27919;-74
2023/04/08 01:12:55;;;;;;;20.80;12.80;;;6.40;99.90;;;;;;477663;249;27959;-75
2023/04/08 01:14:56;;;;;;;21.17;13.23;;;6.40;99.90;;;;;;477609;249;27853;-75
2023/04/08 01:16:57;;;;;;;20.33;12.17;;;6.50;99.90;;;;;;477659;249;27946;-75
2023/04/08 01:18:59;;;;;;;26.57;15.03;;;6.50;99.90;;;;;;477650;249;28426;-75
2023/04/08 01:21:00;;;;;;;24.50;14.97;;;6.40;99.90;;;;;;477658;249;27995;-75
2023/04/08 01:23:02;;;;;;;26.23;15.60;;;6.40;99.90;;;;;;477682;249;28488;-75
2023/04/08 01:25:02;;;;;;;30.67;15.23;;;6.40;99.90;;;;;;477566;249;27884;-74
2023/04/08 01:27:04;;;;;;;24.53;14.40;;;6.40;99.90;;;;;;477649;249;28830;-75
2023/04/08 01:29:05;;;;;;;26.77;14.80;;;6.40;99.90;;;;;;477644;249;27750;-75
2023/04/08 01:31:06;;;;;;;30.03;17.30;;;6.50;99.90;;;;;;477557;249;28038;-75
2023/04/08 01:33:07;;;;;;;24.57;15.00;;;6.50;99.90;;;;;;477681;249;27842;-75
2023/04/08 01:35:09;;;;;;;20.50;11.73;;;6.50;99.90;;;;;;477599;249;28060;-75
2023/04/08 01:37:10;;;;;;;24.73;14.20;;;6.50;99.90;;;;;;477673;249;28506;-74
2023/04/08 01:39:11;;;;;;;25.47;14.90;;;6.50;99.90;;;;;;477661;249;28457;-74
2023/04/08 01:41:12;;;;;;;23.00;13.73;;;6.50;99.90;;;;;;477664;249;28503;-75
2023/04/08 01:43:14;;;;;;;17.63;11.90;;;6.50;99.90;;;;;;477672;249;27915;-75
2023/04/08 01:45:15;;;;;;;20.20;11.53;;;6.50;99.90;;;;;;477600;249;27870;-75
2023/04/08 01:47:16;;;;;;;17.60;11.80;;;6.50;99.90;;;;;;477655;249;27908;-75
2023/04/08 01:49:17;;;;;;;14.35;10.00;;;6.40;99.90;;;;;;477659;249;27809;-75
2023/04/08 01:51:19;;;;;;;15.50;10.70;;;6.40;99.90;;;;;;477690;249;27533;-75
2023/04/08 01:53:20;;;;;;;12.55;9.45;;;6.40;99.90;;;;;;477673;249;28211;-75
2023/04/08 01:55:21;;;;;;;17.95;11.05;;;6.40;99.90;;;;;;477642;249;27856;-75
2023/04/08 01:57:22;;;;;;;13.70;9.37;;;6.40;99.90;;;;;;477681;249;27506;-75
2023/04/08 01:59:24;;;;;;;15.10;10.20;;;6.40;99.90;;;;;;477666;249;28242;-75
2023/04/08 02:01:25;;;;;;;15.73;10.63;;;6.40;99.90;;;;;;477619;249;28059;-75
2023/04/08 02:03:26;;;;;;;16.03;10.03;;;6.40;99.90;;;;;;477685;249;28336;-75
2023/04/08 02:05:28;;;;;;;13.10;8.73;;;6.40;99.90;;;;;;477610;249;28406;-74
2023/04/08 02:07:29;;;;;;;11.60;7.27;;;6.40;99.90;;;;;;477639;249;27829;-75
2023/04/08 02:09:30;;;;;;;14.87;9.97;;;6.30;99.90;;;;;;477635;249;28474;-74
2023/04/08 02:11:31;;;;;;;19.27;12.80;;;6.40;99.90;;;;;;477637;249;28979;-75
2023/04/08 02:13:33;;;;;;;32.03;17.20;;;6.30;99.90;;;;;;477659;249;29355;-75
2023/04/08 02:15:34;;;;;;;25.13;15.30;;;6.30;99.90;;;;;;477565;249;27869;-75
2023/04/08 02:17:36;;;;;;;25.43;15.23;;;6.40;99.90;;;;;;477616;249;27914;-75
2023/04/08 02:19:36;;;;;;;27.13;16.42;;;6.40;99.90;;;;;;477580;249;28744;-75
2023/04/08 02:21:38;;;;;;;23.43;14.37;;;6.50;99.90;;;;;;477579;249;27476;-75
2023/04/08 02:23:39;;;;;;;27.67;15.17;;;6.40;99.90;;;;;;477638;249;28138;-75
2023/04/08 02:25:40;;;;;;;25.37;15.47;;;6.50;99.90;;;;;;477602;249;28414;-75
2023/04/08 02:27:41;;;;;;;26.83;16.00;;;6.50;99.90;;;;;;477613;249;28398;-75
2023/04/08 02:29:43;;;;;;;36.00;18.60;;;6.50;99.90;;;;;;477615;249;28320;-75
2023/04/08 02:31:44;;;;;;;27.00;16.50;;;6.60;99.90;;;;;;477623;249;27892;-75
2023/04/08 02:33:45;;;;;;;26.77;16.30;;;6.60;99.90;;;;;;477658;249;27893;-75
2023/04/08 02:35:46;;;;;;;27.45;14.98;;;6.60;99.90;;;;;;477578;249;27833;-75
2023/04/08 02:37:48;;;;;;;24.42;15.40;;;6.60;99.90;;;;;;477662;249;27442;-75
2023/04/08 02:39:49;;;;;;;26.48;15.25;;;6.60;99.90;;;;;;477676;249;27949;-75
2023/04/08 02:41:50;;;;;;;22.40;14.83;;;6.60;99.90;;;;;;477689;249;28012;-75
2023/04/08 02:43:54;;;;;;;21.93;14.13;;;6.60;99.90;;;;;;477672;249;28794;-74
2023/04/08 02:45:53;;;;;;;24.50;15.17;;;6.50;99.90;;;;;;477437;249;28402;-75
2023/04/08 02:47:54;;;;;;;22.53;14.57;;;6.60;99.90;;;;;;477645;249;28798;-75
2023/04/08 02:49:55;;;;;;;21.37;12.67;;;6.50;99.90;;;;;;477645;249;28830;-75
2023/04/08 02:51:56;;;;;;;24.93;14.40;;;6.50;99.90;;;;;;477677;249;28822;-75
2023/04/08 02:53:58;;;;;;;21.47;12.67;;;6.60;99.90;;;;;;477667;249;28487;-74
2023/04/08 02:55:59;;;;;;;20.70;13.60;;;6.50;99.90;;;;;;477574;249;29222;-75
2023/04/08 02:58:00;;;;;;;27.03;14.53;;;6.60;99.90;;;;;;477673;249;28410;-75
2023/04/08 03:00:02;;;;;;;27.63;13.30;;;6.60;99.90;;;;;;477668;249;27808;-74
2023/04/08 03:02:03;;;;;;;27.50;15.37;;;6.50;99.90;;;;;;477652;248;28062;-75
2023/04/08 03:04:04;;;;;;;23.77;15.13;;;6.60;99.90;;;;;;477677;249;27928;-75
2023/04/08 03:06:05;;;;;;;31.90;17.57;;;6.60;99.90;;;;;;477609;249;28834;-75
2023/04/08 03:08:06;;;;;;;26.70;15.93;;;6.60;99.90;;;;;;477679;249;27788;-74
2023/04/08 03:10:08;;;;;;;30.60;17.90;;;6.60;99.90;;;;;;477666;249;27848;-75
2023/04/08 03:12:09;;;;;;;31.10;16.13;;;6.60;99.90;;;;;;477726;249;28711;-75
2023/04/08 03:14:10;;;;;;;30.90;17.77;;;6.60;99.90;;;;;;477690;249;28617;-75
2023/04/08 03:16:11;;;;;;;37.43;19.40;;;6.60;99.90;;;;;;477677;249;28192;-75
2023/04/08 03:18:13;;;;;;;30.83;18.20;;;6.60;99.90;;;;;;477706;249;27638;-74
2023/04/08 03:20:14;;;;;;;26.40;17.80;;;6.60;99.90;;;;;;477686;249;28805;-75
2023/04/08 03:22:15;;;;;;;29.63;16.87;;;6.60;99.90;;;;;;477721;249;28566;-75
2023/04/08 03:24:16;;;;;;;33.63;16.77;;;6.60;99.90;;;;;;477689;249;28064;-75
2023/04/08 03:26:18;;;;;;;28.27;15.87;;;6.60;99.90;;;;;;477679;249;27836;-75
2023/04/08 03:28:19;;;;;;;31.73;17.20;;;6.60;99.90;;;;;;477666;249;28690;-75
2023/04/08 03:30:20;;;;;;;29.90;16.73;;;6.50;99.90;;;;;;477670;249;29298;-75
2023/04/08 03:32:22;;;;;;;27.47;16.70;;;6.50;99.90;;;;;;477692;249;28666;-75
2023/04/08 03:34:23;;;;;;;36.95;19.30;;;6.50;99.90;;;;;;477623;249;28429;-75
2023/04/08 03:36:25;;;;;;;29.13;15.00;;;6.50;99.90;;;;;;477655;249;27404;-75
2023/04/08 03:38:25;;;;;;;32.13;17.23;;;6.50;99.90;;;;;;477592;249;28897;-75
2023/04/08 03:40:28;;;;;;;24.10;15.17;;;;;;;;;;477681;249;27975;-75
2023/04/08 03:42:29;;;;;;;31.83;16.98;;;6.50;99.90;;;;;;477644;249;26821;-75
2023/04/08 03:44:31;;;;;;;33.57;17.90;;;6.50;99.90;;;;;;477587;249;27481;-74
2023/04/08 03:46:32;;;;;;;33.42;18.35;;;6.50;99.90;;;;;;477696;249;28445;-75
2023/04/08 03:48:33;;;;;;;32.97;17.90;;;6.50;99.90;;;;;;477683;249;27428;-75
2023/04/08 03:50:34;;;;;;;31.93;18.50;;;6.50;99.90;;;;;;477654;249;28321;-75
2023/04/08 03:52:36;;;;;;;32.50;18.40;;;6.50;99.90;;;;;;477653;249;28265;-75
2023/04/08 03:54:37;;;;;;;32.83;18.30;;;6.50;99.90;;;;;;477642;249;28333;-74
2023/04/08 03:56:38;;;;;;;31.93;18.10;;;6.50;99.90;;;;;;477723;249;27865;-74
2023/04/08 03:58:39;;;;;;;31.63;17.20;;;6.50;99.90;;;;;;477687;249;27860;-74
2023/04/08 04:00:41;;;;;;;31.08;17.40;;;6.50;99.90;;;;;;477653;249;27855;-75
2023/04/08 04:02:42;;;;;;;29.30;17.23;;;6.50;99.90;;;;;;477665;249;27420;-74
2023/04/08 04:04:43;;;;;;;31.13;16.77;;;6.50;99.90;;;;;;477642;249;27549;-74
2023/04/08 04:06:44;;;;;;;36.23;19.10;;;6.50;99.90;;;;;;477679;249;28774;-74
2023/04/08 04:08:46;;;;;;;32.83;16.50;;;6.50;99.90;;;;;;477651;249;28785;-75
2023/04/08 04:10:47;;;;;;;34.23;18.13;;;6.50;99.90;;;;;;477636;249;27635;-75
2023/04/08 04:12:48;;;;;;;36.23;18.40;;;6.60;99.90;;;;;;477658;249;27790;-75
2023/04/08 04:14:50;;;;;;;25.27;15.57;;;6.50;99.90;;;;;;477547;249;28038;-75
2023/04/08 04:16:51;;;;;;;24.60;14.13;;;6.50;99.90;;;;;;477597;249;28003;-74
2023/04/08 04:18:52;;;;;;;23.10;14.30;;;6.50;99.90;;;;;;477625;249;28527;-75
2023/04/08 04:20:53;;;;;;;22.53;13.80;;;6.50;99.90;;;;;;477634;249;29013;-75
2023/04/08 04:22:54;;;;;;;23.10;14.40;;;6.50;99.90;;;;;;477644;249;27834;-74
2023/04/08 04:24:56;;;;;;;20.70;12.97;;;6.50;99.90;;;;;;477619;249;27786;-74
2023/04/08 04:26:57;;;;;;;23.95;14.20;;;6.50;99.90;;;;;;477669;249;27755;-75
2023/04/08 04:28:58;;;;;;;21.30;13.10;;;6.50;99.90;;;;;;477658;249;27468;-75
2023/04/08 04:30:59;;;;;;;25.07;13.60;;;6.50;99.90;;;;;;477657;249;28337;-75
2023/04/08 04:33:01;;;;;;;28.67;14.90;;;6.60;99.90;;;;;;477699;249;27914;-75
2023/04/08 04:35:02;;;;;;;15.70;10.43;;;6.50;99.90;;;;;;477615;249;28414;-76
2023/04/08 04:37:03;;;;;;;15.38;9.88;;;6.50;99.90;;;;;;477646;249;27873;-75
2023/04/08 04:39:05;;;;;;;21.80;10.70;;;6.50;99.90;;;;;;477649;249;27445;-75
2023/04/08 04:41:06;;;;;;;16.12;10.95;;;6.40;99.90;;;;;;477683;249;28608;-75
2023/04/08 04:43:07;;;;;;;21.63;10.97;;;6.40;99.90;;;;;;477689;249;27514;-74
2023/04/08 04:45:08;;;;;;;18.93;11.30;;;6.30;99.90;;;;;;477621;249;28406;-75
2023/04/08 04:47:10;;;;;;;17.50;11.13;;;6.40;99.90;;;;;;477669;249;28554;-75
2023/04/08 04:49:11;;;;;;;17.43;11.30;;;6.40;99.90;;;;;;477645;249;28779;-75
2023/04/08 04:51:12;;;;;;;21.87;12.73;;;6.40;99.90;;;;;;477695;249;27928;-75
2023/04/08 04:53:13;;;;;;;20.03;12.43;;;6.40;99.90;;;;;;477683;249;27879;-75
2023/04/08 04:55:15;;;;;;;22.87;13.60;;;6.40;99.90;;;;;;477581;249;28128;-75
2023/04/08 04:57:16;;;;;;;24.23;13.68;;;6.40;99.90;;;;;;477636;249;27642;-74
2023/04/08 04:59:17;;;;;;;27.60;15.67;;;6.40;99.90;;;;;;477657;249;27567;-74
2023/04/08 05:01:18;;;;;;;20.67;13.70;;;6.40;99.90;;;;;;477687;249;28571;-75
2023/04/08 05:03:20;;;;;;;28.70;13.60;;;6.50;99.90;;;;;;477656;249;29293;-75
2023/04/08 05:05:21;;;;;;;27.37;14.77;;;6.40;99.90;;;;;;477601;249;27888;-75
2023/04/08 05:07:22;;;;;;;26.55;15.80;;;6.50;99.90;;;;;;477617;249;27830;-74
2023/04/08 05:09:23;;;;;;;38.03;19.80;;;6.50;99.90;;;;;;477675;249;27426;-74
2023/04/08 05:11:25;;;;;;;30.83;16.23;;;6.50;99.90;;;;;;477686;249;28680;-74
2023/04/08 05:13:26;;;;;;;30.10;16.67;;;6.50;99.90;;;;;;477661;249;27635;-74
2023/04/08 05:15:27;;;;;;;30.00;16.10;;;6.50;99.90;;;;;;477624;249;28390;-75
2023/04/08 05:17:28;;;;;;;31.43;18.10;;;6.50;99.90;;;;;;477659;249;28198;-75
2023/04/08 05:19:30;;;;;;;31.10;17.50;;;6.50;99.90;;;;;;477704;249;28269;-75
2023/04/08 05:21:31;;;;;;;29.97;17.20;;;6.50;99.90;;;;;;477702;248;27992;-75
2023/04/08 05:23:32;;;;;;;30.93;17.10;;;6.60;99.90;;;;;;477686;249;28809;-75
2023/04/08 05:25:33;;;;;;;29.50;16.87;;;6.60;99.90;;;;;;477619;249;27789;-74
2023/04/08 05:27:35;;;;;;;28.10;16.73;;;6.60;99.90;;;;;;477678;249;27402;-75
2023/04/08 05:29:36;;;;;;;36.13;20.87;;;6.60;99.90;;;;;;477688;249;27921;-75
2023/04/08 05:31:37;;;;;;;47.30;22.77;;;6.60;99.90;;;;;;477693;249;28947;-75
2023/04/08 05:33:38;;;;;;;41.80;20.37;;;6.60;99.90;;;;;;477669;249;27849;-75
2023/04/08 05:35:40;;;;;;;34.27;18.70;;;6.50;99.90;;;;;;477615;247;28344;-75
2023/04/08 05:37:41;;;;;;;38.20;19.50;;;6.60;99.90;;;;;;477663;249;28563;-75
2023/04/08 05:39:42;;;;;;;35.30;20.10;;;6.60;99.90;;;;;;477673;249;27880;-75
2023/04/08 05:41:43;;;;;;;41.33;20.13;;;6.60;99.90;;;;;;477675;249;27937;-75
2023/04/08 05:43:45;;;;;;;35.23;18.40;;;6.70;99.90;;;;;;477674;249;27761;-75
2023/04/08 05:45:46;;;;;;;34.93;19.33;;;6.70;99.90;;;;;;477594;249;27984;-75
2023/04/08 05:47:47;;;;;;;32.47;16.63;;;6.70;99.90;;;;;;477669;249;27946;-75
2023/04/08 05:49:49;;;;;;;28.10;15.13;;;6.70;99.90;;;;;;477660;249;27968;-74
2023/04/08 05:51:50;;;;;;;31.00;16.90;;;6.70;99.90;;;;;;477683;249;28347;-75
2023/04/08 05:53:51;;;;;;;27.73;15.13;;;6.70;99.90;;;;;;477663;249;27905;-75
2023/04/08 05:55:52;;;;;;;33.40;18.63;;;6.70;99.90;;;;;;477595;249;28126;-76
2023/04/08 05:57:54;;;;;;;27.30;15.23;;;6.70;99.90;;;;;;477644;249;27651;-75
2023/04/08 05:59:55;;;;;;;26.63;15.70;;;6.80;99.90;;;;;;477674;249;27578;-75
2023/04/08 06:01:56;;;;;;;29.43;17.33;;;6.80;99.90;;;;;;477649;249;27943;-75
2023/04/08 06:03:57;;;;;;;20.30;13.30;;;6.90;99.90;;;;;;477670;249;27713;-75
2023/04/08 06:05:59;;;;;;;25.43;13.87;;;6.90;99.90;;;;;;477594;249;27438;-75
2023/04/08 06:08:00;;;;;;;27.77;16.50;;;6.90;99.90;;;;;;477647;249;28177;-75
2023/04/08 06:10:01;;;;;;;28.27;16.17;;;6.90;99.90;;;;;;477682;249;28389;-75
2023/04/08 06:12:02;;;;;;;31.07;17.17;;;6.90;99.90;;;;;;477662;249;27942;-75
2023/04/08 06:14:04;;;;;;;31.50;17.53;;;6.90;99.90;;;;;;477629;249;27865;-74
2023/04/08 06:16:05;;;;;;;28.20;15.43;;;7.00;99.90;;;;;;477566;249;27788;-75
2023/04/08 06:18:06;;;;;;;26.63;16.13;;;7.00;99.90;;;;;;477607;249;28339;-75
2023/04/08 06:20:11;;;;;;;31.20;17.70;;;7.10;99.90;;;;;;477636;249;27885;-75
2023/04/08 06:22:09;;;;;;;26.67;15.80;;;7.10;99.90;;;;;;477223;249;27838;-75
2023/04/08 06:24:10;;;;;;;28.33;14.77;;;7.10;99.90;;;;;;477646;249;27898;-75
2023/04/08 06:26:12;;;;;;;29.43;16.03;;;7.10;99.90;;;;;;477606;249;28447;-75
2023/04/08 06:28:12;;;;;;;36.50;19.03;;;7.20;99.90;;;;;;477639;249;28186;-75
2023/04/08 06:30:15;;;;;;;38.53;20.43;;;7.20;99.90;;;;;;477672;249;27767;-75
2023/04/08 06:32:15;;;;;;;26.80;17.30;;;7.20;99.90;;;;;;477602;249;27952;-75
2023/04/08 06:34:16;;;;;;;29.37;15.73;;;7.30;99.90;;;;;;477611;249;27953;-75
2023/04/08 06:36:17;;;;;;;27.27;16.77;;;7.30;99.90;;;;;;477585;249;28018;-75
2023/04/08 06:38:19;;;;;;;32.63;18.73;;;7.40;99.90;;;;;;477702;249;28258;-75
2023/04/08 06:40:20;;;;;;;28.30;17.40;;;7.40;99.90;;;;;;477674;249;27675;-75
2023/04/08 06:42:21;;;;;;;30.53;17.60;;;7.50;99.90;;;;;;477633;249;27694;-76
2023/04/08 06:44:22;;;;;;;33.00;18.37;;;7.50;99.90;;;;;;477599;249;28388;-75
2023/04/08 06:46:24;;;;;;;21.90;15.90;;;7.60;99.90;;;;;;477606;249;28161;-75
2023/04/08 06:48:29;;;;;;;29.20;17.80;;;7.60;99.90;;;;;;477660;249;27799;-75
2023/04/08 06:50:29;;;;;;;33.50;20.13;;;7.60;99.90;;;;;;477609;249;27822;-75
2023/04/08 06:52:30;;;;;;;34.17;19.33;;;7.30;99.90;;;;;;477683;249;27876;-75
2023/04/08 06:54:32;;;;;;;31.80;19.57;;;7.30;99.90;;;;;;477611;249;28006;-75
2023/04/08 06:56:33;;;;;;;25.73;16.63;;;7.40;99.90;;;;;;477664;249;28205;-75
2023/04/08 06:58:34;;;;;;;26.80;16.57;;;7.50;99.90;;;;;;477672;249;28375;-75
2023/04/08 07:00:36;;;;;;;29.77;17.50;;;7.70;99.90;;;;;;477679;249;27907;-76
2023/04/08 07:02:37;;;;;;;29.63;17.00;;;7.80;99.90;;;;;;477656;249;27990;-75
2023/04/08 07:04:38;;;;;;;29.23;18.07;;;7.80;99.90;;;;;;477615;249;27825;-75
2023/04/08 07:06:39;;;;;;;32.00;19.47;;;7.90;99.90;;;;;;477650;249;27751;-75
2023/04/08 07:08:41;;;;;;;34.27;19.57;;;7.70;99.90;;;;;;477682;249;27864;-75
2023/04/08 07:10:42;;;;;;;31.07;19.10;;;7.70;99.90;;;;;;477710;249;28006;-76
2023/04/08 07:12:43;;;;;;;25.23;16.10;;;7.90;99.90;;;;;;477690;249;27857;-75
2023/04/08 07:14:44;;;;;;;35.73;20.07;;;8.00;99.90;;;;;;477616;249;28454;-75
2023/04/08 07:16:45;;;;;;;26.50;15.90;;;7.80;99.90;;;;;;477679;249;28233;-75
2023/04/08 07:18:47;;;;;;;27.50;16.27;;;7.80;99.90;;;;;;477675;249;27858;-75
2023/04/08 07:20:48;;;;;;;27.27;17.20;;;8.00;99.90;;;;;;477718;249;27929;-75
2023/04/08 07:22:49;;;;;;;28.80;16.90;;;8.10;99.90;;;;;;477674;249;27869;-75
2023/04/08 07:24:50;;;;;;;33.87;18.60;;;8.30;99.90;;;;;;477633;249;27547;-75
2023/04/08 07:26:52;;;;;;;28.00;17.50;;;8.10;99.90;;;;;;477635;249;28035;-75
2023/04/08 07:28:53;;;;;;;31.03;18.97;;;7.90;99.90;;;;;;477679;249;28027;-76
2023/04/08 07:30:54;;;;;;;31.50;18.93;;;8.00;99.90;;;;;;477690;249;27922;-76
2023/04/08 07:32:56;;;;;;;24.70;17.03;;;7.90;99.90;;;;;;477690;249;28218;-76
2023/04/08 07:34:57;;;;;;;21.07;15.00;;;8.10;99.90;;;;;;477584;249;28387;-75
2023/04/08 07:36:58;;;;;;;28.80;16.40;;;8.30;99.90;;;;;;477644;249;27870;-75
2023/04/08 07:38:59;;;;;;;26.97;18.07;;;8.40;99.90;;;;;;477671;249;27993;-75
2023/04/08 07:41:00;;;;;;;28.87;18.87;;;8.30;99.90;;;;;;477705;249;27790;-75
2023/04/08 07:43:02;;;;;;;24.70;16.40;;;8.10;99.90;;;;;;477646;249;27958;-76
2023/04/08 07:45:03;;;;;;;27.20;17.53;;;8.10;99.90;;;;;;477620;249;27936;-76
2023/04/08 07:47:04;;;;;;;22.90;15.23;;;8.20;99.90;;;;;;477677;249;27823;-75
2023/04/08 07:49:06;;;;;;;27.10;16.73;;;8.30;99.90;;;;;;477696;249;28324;-76
2023/04/08 07:51:07;;;;;;;30.53;18.47;;;8.40;99.90;;;;;;477661;249;28527;-75
2023/04/08 07:53:08;;;;;;;26.93;16.53;;;8.30;99.90;;;;;;477669;249;27655;-75
2023/04/08 07:55:09;;;;;;;26.90;18.63;;;8.30;99.90;;;;;;477624;249;27935;-75
2023/04/08 07:57:11;;;;;;;25.67;18.17;;;8.20;99.90;;;;;;477655;249;27952;-75
2023/04/08 07:59:12;;;;;;;28.10;17.70;;;8.20;99.90;;;;;;477651;249;27681;-75
2023/04/08 08:01:13;;;;;;;25.80;16.77;;;8.20;99.90;;;;;;477661;249;27896;-75
2023/04/08 08:03:14;;;;;;;26.83;16.10;;;8.40;99.90;;;;;;477662;249;27846;-75
2023/04/08 08:05:15;;;;;;;23.57;15.83;;;8.70;99.90;;;;;;477628;249;28483;-76
2023/04/08 08:07:17;;;;;;;21.33;14.90;;;8.90;99.90;;;;;;477664;249;29082;-76
2023/04/08 08:09:18;;;;;;;22.90;16.40;;;8.90;99.90;;;;;;477688;249;28576;-76
2023/04/08 08:11:21;;;;;;;28.40;18.93;;;8.80;99.90;;;;;;477671;249;27572;-75
2023/04/08 08:13:21;;;;;;;21.93;15.90;;;8.60;99.90;;;;;;477595;249;27887;-75
2023/04/08 08:15:22;;;;;;;27.03;16.50;;;8.70;99.90;;;;;;477622;249;27536;-75
2023/04/08 08:17:23;;;;;;;23.63;17.10;;;8.60;99.90;;;;;;477690;249;27775;-75
2023/04/08 08:19:24;;;;;;;24.13;15.93;;;8.60;99.90;;;;;;477672;249;27834;-75
2023/04/08 08:21:26;;;;;;;22.40;15.63;;;8.60;99.90;;;;;;477676;249;27653;-75
2023/04/08 08:23:27;;;;;;;24.27;16.80;;;8.80;99.90;;;;;;477664;249;28086;-76
2023/04/08 08:25:28;;;;;;;23.23;16.13;;;8.80;99.90;;;;;;477606;249;28388;-75
2023/04/08 08:27:29;;;;;;;20.20;14.63;;;8.80;99.90;;;;;;477686;249;28434;-75
2023/04/08 08:29:31;;;;;;;21.97;15.97;;;8.80;99.90;;;;;;477681;249;28046;-75
2023/04/08 08:31:32;;;;;;;22.43;16.27;;;8.90;99.90;;;;;;477654;249;27871;-75
2023/04/08 08:33:33;;;;;;;22.93;16.80;;;8.90;99.90;;;;;;477670;249;27979;-75
2023/04/08 08:35:34;;;;;;;26.13;17.70;;;8.90;99.90;;;;;;477582;249;27994;-75
2023/04/08 08:37:36;;;;;;;26.00;18.10;;;8.90;99.90;;;;;;477702;249;27951;-76
2023/04/08 08:39:37;;;;;;;23.27;17.30;;;8.80;99.90;;;;;;477697;249;27953;-76
2023/04/08 08:41:39;;;;;;;23.57;15.87;;;8.90;99.90;;;;;;477684;249;28394;-75
2023/04/08 08:43:39;;;;;;;23.87;16.97;;;9.00;99.90;;;;;;477633;249;28307;-76
2023/04/08 08:45:41;;;;;;;24.63;17.10;;;8.80;99.90;;;;;;477618;249;28272;-75
2023/04/08 08:47:42;;;;;;;22.37;14.87;;;8.90;99.90;;;;;;477716;249;27894;-76
2023/04/08 08:49:43;;;;;;;22.27;16.17;;;9.10;99.90;;;;;;477702;249;27843;-75
2023/04/08 08:51:45;;;;;;;30.57;16.30;;;9.30;99.90;;;;;;477675;249;28003;-75
2023/04/08 08:53:46;;;;;;;20.53;14.73;;;9.40;99.90;;;;;;477625;249;27893;-75
2023/04/08 08:55:47;;;;;;;22.10;14.90;;;9.50;99.90;;;;;;477596;249;27913;-76
2023/04/08 08:57:49;;;;;;;22.07;14.80;;;9.70;99.90;;;;;;477664;249;27861;-75
2023/04/08 08:59:50;;;;;;;22.20;16.33;;;9.80;99.90;;;;;;477636;249;28325;-75
2023/04/08 09:01:51;;;;;;;18.80;15.37;;;9.70;99.90;;;;;;477684;249;28354;-76
2023/04/08 09:03:52;;;;;;;22.43;15.20;;;9.70;99.90;;;;;;477630;249;28224;-76
2023/04/08 09:05:53;;;;;;;19.37;13.43;;;9.70;99.90;;;;;;477583;249;27914;-75
2023/04/08 09:07:55;;;;;;;21.33;13.70;;;9.60;99.90;;;;;;477650;249;27854;-75
2023/04/08 09:09:56;;;;;;;22.27;15.67;;;9.70;99.90;;;;;;477706;249;27863;-76
2023/04/08 09:11:57;;;;;;;18.83;14.03;;;9.80;99.90;;;;;;477683;249;27907;-76
2023/04/08 09:13:58;;;;;;;22.33;12.90;;;9.80;99.90;;;;;;477656;249;28520;-75
2023/04/08 09:15:59;;;;;;;21.40;14.93;;;10.00;99.90;;;;;;477608;249;28474;-75
2023/04/08 09:18:01;;;;;;;23.40;14.83;;;10.00;99.90;;;;;;477675;249;28494;-76
2023/04/08 09:20:02;;;;;;;23.53;15.23;;;10.20;99.90;;;;;;477694;249;28018;-75
2023/04/08 09:22:03;;;;;;;20.27;14.80;;;10.00;99.90;;;;;;477707;249;27904;-76
2023/04/08 09:24:04;;;;;;;21.40;14.87;;;10.00;99.90;;;;;;477667;249;27767;-75
2023/04/08 09:26:06;;;;;;;22.73;14.17;;;10.00;99.90;;;;;;477639;249;28003;-76
2023/04/08 09:28:11;;;;;;;19.08;14.20;;;;;;;;;;476021;249;36681;-76
2023/04/08 09:30:12;;;;;;;20.87;15.00;;;10.00;99.90;;;;;;477691;249;26796;-76
2023/04/08 09:32:13;;;;;;;19.80;14.50;;;10.00;99.90;;;;;;477669;249;28419;-76
2023/04/08 09:34:24;;;;;;;17.63;13.00;;;10.10;99.90;;;;;;477642;249;27906;-75
2023/04/08 09:36:16;;;;;;;21.60;13.70;;;10.20;99.90;;;;;;476249;249;28035;-76
2023/04/08 09:38:17;;;;;;;17.30;12.77;;;10.30;99.90;;;;;;477668;249;27924;-75
2023/04/08 09:40:18;;;;;;;18.93;14.30;;;10.40;99.90;;;;;;477682;249;28015;-75
2023/04/08 09:42:20;;;;;;;19.30;13.93;;;10.50;99.90;;;;;;477690;249;27828;-76
2023/04/08 09:44:21;;;;;;;23.93;14.20;;;10.70;99.90;;;;;;477599;249;28678;-76
2023/04/08 09:46:22;;;;;;;19.10;14.10;;;10.80;99.90;;;;;;477636;249;28722;-76
2023/04/08 09:48:23;;;;;;;16.83;12.93;;;10.80;99.90;;;;;;477667;249;28967;-76
2023/04/08 09:50:25;;;;;;;18.67;14.40;;;10.90;99.90;;;;;;477693;249;28040;-75
2023/04/08 09:52:26;;;;;;;16.97;13.63;;;11.00;99.90;;;;;;477659;249;28342;-76
2023/04/08 09:54:27;;;;;;;17.40;12.80;;;10.80;99.90;;;;;;477606;249;28350;-76
2023/04/08 09:56:28;;;;;;;18.67;14.03;;;11.10;99.90;;;;;;477631;249;28158;-76
2023/04/08 09:58:30;;;;;;;18.23;14.20;;;11.20;99.90;;;;;;477672;249;28995;-76
2023/04/08 10:00:31;;;;;;;15.07;12.33;;;11.40;99.90;;;;;;477673;249;29210;-75
2023/04/08 10:02:32;;;;;;;18.90;13.20;;;11.50;99.90;;;;;;477682;249;28486;-76
2023/04/08 10:04:35;;;;;;;17.60;14.00;;;;;;;;;;477641;249;28628;-75
2023/04/08 10:06:36;;;;;;;16.40;13.30;;;11.40;99.90;;;;;;477683;249;28296;-75
2023/04/08 10:08:37;;;;;;;17.47;14.30;;;11.40;99.90;;;;;;477714;249;28867;-76
2023/04/08 10:10:38;;;;;;;15.37;12.70;;;11.40;99.90;;;;;;477680;249;28269;-76
2023/04/08 10:12:40;;;;;;;15.93;12.80;;;11.50;99.90;;;;;;477685;249;28423;-75
2023/04/08 10:14:41;;;;;;;21.60;12.73;;;11.80;99.90;;;;;;477618;249;28159;-76
2023/04/08 10:16:42;;;;;;;15.10;12.80;;;12.00;99.90;;;;;;477687;249;28789;-76
2023/04/08 10:18:44;;;;;;;17.83;14.07;;;12.10;99.90;;;;;;477680;249;28114;-76
2023/04/08 10:20:45;;;;;;;23.17;14.50;;;12.10;99.90;;;;;;477688;249;28637;-76
2023/04/08 10:22:50;;;;;;;20.67;14.83;;;12.10;99.90;;;;;;477674;249;28675;-76